createdAt,value
2022-08-22T00:00:59.247Z,0.00
2022-08-22T00:01:58.914Z,0.00
2022-08-22T00:03:02.383Z,0.00
2022-08-22T00:03:03.718Z,0.00
2022-08-22T00:03:11.173Z,0.00
2022-08-22T00:03:12.732Z,0.00
2022-08-22T00:03:58.691Z,0.00
2022-08-22T00:04:58.705Z,0.00
2022-08-22T00:05:58.510Z,0.00
2022-08-22T00:06:58.516Z,0.00
2022-08-22T00:07:58.496Z,0.00
2022-08-22T00:08:58.423Z,0.00
2022-08-22T00:09:58.266Z,0.00
2022-08-22T00:10:58.160Z,0.00
2022-08-22T00:11:58.100Z,0.00
2022-08-22T00:12:58.050Z,0.00
2022-08-22T00:14:01.476Z,0.00
2022-08-22T00:14:57.973Z,0.00
2022-08-22T00:15:57.921Z,0.00
2022-08-22T00:16:57.812Z,0.00
2022-08-22T00:17:57.894Z,0.00
2022-08-22T00:18:57.673Z,0.00
2022-08-22T00:19:57.625Z,0.00
2022-08-22T00:20:57.553Z,0.00
2022-08-22T00:21:57.497Z,0.00
2022-08-22T00:22:57.435Z,0.00
2022-08-22T00:23:57.371Z,0.00
2022-08-22T00:24:57.338Z,0.00
2022-08-22T00:25:57.268Z,0.00
2022-08-22T00:26:57.191Z,0.00
2022-08-22T00:27:57.278Z,0.00
2022-08-22T00:28:57.069Z,0.00
2022-08-22T00:29:57.018Z,0.00
2022-08-22T00:30:56.947Z,0.00
2022-08-22T00:31:56.888Z,0.00
2022-08-22T00:32:56.829Z,0.00
2022-08-22T00:33:56.767Z,0.00
2022-08-22T00:34:56.706Z,0.00
2022-08-22T00:35:56.644Z,0.00
2022-08-22T00:36:56.603Z,0.00
2022-08-22T00:37:56.540Z,0.00
2022-08-22T00:38:56.460Z,0.00
2022-08-22T00:39:56.454Z,0.00
2022-08-22T00:40:56.354Z,0.00
2022-08-22T00:41:56.295Z,0.00
2022-08-22T00:42:56.222Z,0.00
2022-08-22T00:43:56.161Z,0.00
2022-08-22T00:44:56.103Z,0.00
2022-08-22T00:45:56.055Z,0.00
2022-08-22T00:46:56.007Z,0.00
2022-08-22T00:47:55.993Z,0.00
2022-08-22T00:48:55.872Z,0.00
2022-08-22T00:49:55.805Z,0.00
2022-08-22T00:50:55.748Z,0.00
2022-08-22T00:51:55.686Z,0.00
2022-08-22T00:52:56.271Z,0.00
2022-08-22T00:53:55.562Z,0.00
2022-08-22T00:54:55.518Z,0.00
2022-08-22T00:55:55.444Z,0.00
2022-08-22T00:56:55.377Z,0.00
2022-08-22T00:57:55.342Z,0.00
2022-08-22T00:58:55.250Z,0.00
2022-08-22T00:59:55.193Z,0.00
2022-08-22T01:00:55.185Z,0.00
2022-08-22T01:01:55.075Z,0.00
2022-08-22T01:02:55.008Z,0.00
2022-08-22T01:03:54.955Z,0.00
2022-08-22T01:04:54.887Z,0.00
2022-08-22T01:05:54.831Z,0.00
2022-08-22T01:06:54.765Z,0.00
2022-08-22T01:07:54.711Z,0.00
2022-08-22T01:08:54.644Z,0.00
2022-08-22T01:09:54.585Z,0.00
2022-08-22T01:10:54.523Z,0.00
2022-08-22T01:11:54.469Z,0.00
2022-08-22T01:12:54.406Z,0.00
2022-08-22T01:13:54.349Z,0.00
2022-08-22T01:14:54.292Z,0.00
2022-08-22T01:15:54.231Z,0.00
2022-08-22T01:16:54.157Z,0.00
2022-08-22T01:17:54.101Z,0.00
2022-08-22T01:18:54.044Z,0.00
2022-08-22T01:19:53.978Z,0.00
2022-08-22T01:20:53.916Z,0.00
2022-08-22T01:21:53.855Z,0.00
2022-08-22T01:22:53.794Z,0.00
2022-08-22T01:23:53.741Z,0.00
2022-08-22T01:24:53.674Z,0.00
2022-08-22T01:25:53.614Z,0.00
2022-08-22T01:26:53.569Z,0.00
2022-08-22T01:27:53.492Z,0.00
2022-08-22T01:28:53.429Z,0.00
2022-08-22T01:29:53.384Z,0.00
2022-08-22T01:30:53.316Z,0.00
2022-08-22T01:31:53.258Z,0.00
2022-08-22T01:32:56.955Z,0.00
2022-08-22T01:33:53.135Z,0.00
2022-08-22T01:34:53.078Z,0.00
2022-08-22T01:35:53.015Z,0.00
2022-08-22T01:36:52.956Z,0.00
2022-08-22T01:37:52.891Z,0.00
2022-08-22T01:38:52.832Z,0.00
2022-08-22T01:39:52.824Z,0.00
2022-08-22T01:40:53.750Z,0.00
2022-08-22T01:41:52.647Z,0.00
2022-08-22T01:42:52.594Z,0.00
2022-08-22T01:43:59.858Z,0.00
2022-08-22T01:44:52.469Z,0.00
2022-08-22T01:45:52.407Z,0.00
2022-08-22T01:46:52.337Z,0.00
2022-08-22T01:47:56.865Z,0.00
2022-08-22T01:48:52.218Z,0.00
2022-08-22T01:49:52.158Z,0.00
2022-08-22T01:50:52.098Z,0.00
2022-08-22T01:51:52.105Z,0.00
2022-08-22T01:52:51.971Z,0.00
2022-08-22T01:53:51.927Z,0.00
2022-08-22T01:54:51.860Z,0.00
2022-08-22T01:55:51.790Z,0.00
2022-08-22T01:56:51.733Z,0.00
2022-08-22T01:57:51.674Z,0.00
2022-08-22T01:58:51.609Z,0.00
2022-08-22T01:59:51.553Z,0.00
2022-08-22T02:00:51.531Z,0.00
2022-08-22T02:01:51.425Z,0.00
2022-08-22T02:02:51.366Z,0.00
2022-08-22T02:03:51.307Z,0.00
2022-08-22T02:04:51.240Z,0.00
2022-08-22T02:05:51.224Z,0.00
2022-08-22T02:06:51.123Z,0.00
2022-08-22T02:07:51.058Z,0.00
2022-08-22T02:08:50.999Z,0.00
2022-08-22T02:09:50.936Z,0.00
2022-08-22T02:10:50.876Z,0.00
2022-08-22T02:11:50.832Z,0.00
2022-08-22T02:12:50.755Z,0.00
2022-08-22T02:13:50.693Z,0.00
2022-08-22T02:14:50.632Z,0.00
2022-08-22T02:15:50.571Z,0.00
2022-08-22T02:16:50.521Z,0.00
2022-08-22T02:17:50.448Z,0.00
2022-08-22T02:18:50.398Z,0.00
2022-08-22T02:19:50.338Z,0.00
2022-08-22T02:20:50.276Z,0.00
2022-08-22T02:21:50.216Z,0.00
2022-08-22T02:22:50.160Z,0.00
2022-08-22T02:23:50.091Z,0.00
2022-08-22T02:24:50.020Z,0.00
2022-08-22T02:25:50.013Z,0.00
2022-08-22T02:26:49.909Z,0.00
2022-08-22T02:27:49.852Z,0.00
2022-08-22T02:28:57.058Z,0.00
2022-08-22T02:29:49.731Z,0.00
2022-08-22T02:30:49.662Z,0.00
2022-08-22T02:31:49.601Z,0.00
2022-08-22T02:32:49.548Z,0.00
2022-08-22T02:33:49.481Z,0.00
2022-08-22T02:34:49.412Z,0.00
2022-08-22T02:35:49.358Z,0.00
2022-08-22T02:36:49.302Z,0.00
2022-08-22T02:37:49.233Z,0.00
2022-08-22T02:38:49.177Z,0.00
2022-08-22T02:39:49.161Z,0.00
2022-08-22T02:40:49.052Z,0.00
2022-08-22T02:41:49.028Z,0.00
2022-08-22T02:42:48.928Z,0.00
2022-08-22T02:43:49.646Z,0.00
2022-08-22T02:44:48.804Z,0.00
2022-08-22T02:45:48.745Z,0.00
2022-08-22T02:46:48.687Z,0.00
2022-08-22T02:47:48.627Z,0.00
2022-08-22T02:48:48.558Z,0.00
2022-08-22T02:49:48.496Z,0.00
2022-08-22T02:50:48.440Z,0.00
2022-08-22T02:51:48.375Z,0.00
2022-08-22T02:52:48.348Z,0.00
2022-08-22T02:53:48.251Z,0.00
2022-08-22T02:54:48.189Z,0.00
2022-08-22T02:55:48.129Z,0.00
2022-08-22T02:56:48.075Z,0.00
2022-08-22T02:57:48.006Z,0.00
2022-08-22T02:58:47.946Z,0.00
2022-08-22T02:59:47.887Z,0.00
2022-08-22T03:00:47.855Z,0.00
2022-08-22T03:01:47.762Z,0.00
2022-08-22T03:02:47.709Z,0.00
2022-08-22T03:03:47.640Z,0.00
2022-08-22T03:04:47.582Z,0.00
2022-08-22T03:05:47.519Z,0.00
2022-08-22T03:06:47.461Z,0.00
2022-08-22T03:07:47.396Z,0.00
2022-08-22T03:08:50.950Z,0.00
2022-08-22T03:09:47.275Z,0.00
2022-08-22T03:10:47.239Z,0.00
2022-08-22T03:11:47.150Z,0.00
2022-08-22T03:12:47.087Z,0.00
2022-08-22T03:13:47.032Z,0.00
2022-08-22T03:14:46.966Z,0.00
2022-08-22T03:15:48.626Z,0.00
2022-08-22T03:16:46.844Z,0.00
2022-08-22T03:17:46.785Z,0.00
2022-08-22T03:18:46.722Z,0.00
2022-08-22T03:19:46.688Z,0.00
2022-08-22T03:20:46.599Z,0.00
2022-08-22T03:21:46.541Z,0.00
2022-08-22T03:22:46.480Z,0.00
2022-08-22T03:23:46.417Z,0.00
2022-08-22T03:24:46.368Z,0.00
2022-08-22T03:25:46.298Z,0.00
2022-08-22T03:26:46.237Z,0.00
2022-08-22T03:27:49.844Z,0.00
2022-08-22T03:28:59.513Z,0.00
2022-08-22T03:29:46.052Z,0.00
2022-08-22T03:30:46.004Z,0.00
2022-08-22T03:31:45.930Z,0.00
2022-08-22T03:32:45.884Z,0.00
2022-08-22T03:33:45.815Z,0.00
2022-08-22T03:34:45.765Z,0.00
2022-08-22T03:35:45.773Z,0.00
2022-08-22T03:36:45.644Z,0.00
2022-08-22T03:37:45.579Z,0.00
2022-08-22T03:38:45.512Z,0.00
2022-08-22T03:39:45.521Z,0.00
2022-08-22T03:40:45.391Z,0.00
2022-08-22T03:41:45.330Z,0.00
2022-08-22T03:42:45.264Z,0.00
2022-08-22T03:43:45.209Z,0.00
2022-08-22T03:44:45.146Z,0.00
2022-08-22T03:45:45.089Z,0.00
2022-08-22T03:46:45.027Z,0.00
2022-08-22T03:47:44.959Z,0.00
2022-08-22T03:48:44.902Z,0.00
2022-08-22T03:49:44.865Z,0.00
2022-08-22T03:50:44.794Z,0.00
2022-08-22T03:51:44.725Z,0.00
2022-08-22T03:52:44.671Z,0.00
2022-08-22T03:53:44.594Z,0.00
2022-08-22T03:54:44.530Z,0.00
2022-08-22T03:55:44.472Z,0.00
2022-08-22T03:56:44.409Z,0.00
2022-08-22T03:57:44.368Z,0.00
2022-08-22T03:58:44.287Z,0.00
2022-08-22T03:59:44.224Z,0.00
2022-08-22T04:00:44.234Z,0.00
2022-08-22T04:01:44.104Z,0.00
2022-08-22T04:02:44.365Z,0.00
2022-08-22T04:03:43.976Z,0.00
2022-08-22T04:04:43.930Z,0.00
2022-08-22T04:05:43.867Z,0.00
2022-08-22T04:06:43.796Z,0.00
2022-08-22T04:07:43.741Z,0.00
2022-08-22T04:08:43.996Z,0.00
2022-08-22T04:09:43.620Z,0.00
2022-08-22T04:10:43.555Z,0.00
2022-08-22T04:11:43.491Z,0.00
2022-08-22T04:12:43.426Z,0.00
2022-08-22T04:13:43.382Z,5.63
2022-08-22T04:14:43.312Z,5.63
2022-08-22T04:15:43.241Z,5.63
2022-08-22T04:16:43.183Z,5.63
2022-08-22T04:17:43.121Z,5.63
2022-08-22T04:18:43.117Z,5.63
2022-08-22T04:19:43.005Z,5.63
2022-08-22T04:20:42.937Z,5.63
2022-08-22T04:21:42.877Z,5.63
2022-08-22T04:22:42.852Z,5.63
2022-08-22T04:23:42.756Z,5.63
2022-08-22T04:24:42.698Z,5.63
2022-08-22T04:25:42.656Z,5.63
2022-08-22T04:26:42.583Z,5.63
2022-08-22T04:27:42.515Z,11.25
2022-08-22T04:28:42.452Z,11.25
2022-08-22T04:29:42.389Z,11.25
2022-08-22T04:30:42.365Z,11.25
2022-08-22T04:31:42.273Z,11.25
2022-08-22T04:32:42.209Z,11.25
2022-08-22T04:33:42.162Z,11.25
2022-08-22T04:34:42.082Z,11.25
2022-08-22T04:35:42.022Z,11.25
2022-08-22T04:36:41.963Z,11.25
2022-08-22T04:37:41.905Z,16.88
2022-08-22T04:38:41.840Z,16.88
2022-08-22T04:39:41.823Z,16.88
2022-08-22T04:40:41.729Z,16.88
2022-08-22T04:41:41.664Z,16.88
2022-08-22T04:42:41.603Z,16.88
2022-08-22T04:43:41.537Z,16.88
2022-08-22T04:44:41.485Z,16.88
2022-08-22T04:45:41.418Z,16.88
2022-08-22T04:46:41.365Z,16.88
2022-08-22T04:47:41.307Z,16.88
2022-08-22T04:48:41.241Z,16.88
2022-08-22T04:49:41.164Z,16.88
2022-08-22T04:50:43.160Z,16.88
2022-08-22T04:51:41.052Z,16.88
2022-08-22T04:52:40.991Z,16.88
2022-08-22T04:53:40.921Z,16.88
2022-08-22T04:54:40.870Z,22.50
2022-08-22T04:55:40.809Z,22.50
2022-08-22T04:56:40.745Z,22.50
2022-08-22T04:57:40.692Z,22.50
2022-08-22T04:58:40.617Z,22.50
2022-08-22T04:59:40.552Z,22.50
2022-08-22T05:00:40.504Z,22.50
2022-08-22T05:01:40.475Z,22.50
2022-08-22T05:02:40.378Z,22.50
2022-08-22T05:03:44.747Z,22.50
2022-08-22T05:04:40.253Z,22.50
2022-08-22T05:05:40.191Z,28.13
2022-08-22T05:06:40.133Z,28.13
2022-08-22T05:07:40.159Z,28.13
2022-08-22T05:08:40.009Z,28.13
2022-08-22T05:09:39.985Z,28.13
2022-08-22T05:10:39.893Z,28.13
2022-08-22T05:11:39.841Z,28.13
2022-08-22T05:12:39.802Z,28.13
2022-08-22T05:13:39.715Z,28.13
2022-08-22T05:14:39.655Z,28.13
2022-08-22T05:15:39.584Z,28.13
2022-08-22T05:16:39.521Z,28.13
2022-08-22T05:17:39.462Z,28.13
2022-08-22T05:18:39.408Z,28.13
2022-08-22T05:19:40.114Z,28.13
2022-08-22T05:20:39.278Z,28.13
2022-08-22T05:21:39.216Z,28.13
2022-08-22T05:22:39.174Z,28.13
2022-08-22T05:23:39.118Z,28.13
2022-08-22T05:24:39.054Z,28.13
2022-08-22T05:25:38.996Z,28.13
2022-08-22T05:26:38.913Z,28.13
2022-08-22T05:27:38.846Z,28.13
2022-08-22T05:28:38.790Z,28.13
2022-08-22T05:29:38.730Z,28.13
2022-08-22T05:30:38.718Z,28.13
2022-08-22T05:31:38.603Z,28.13
2022-08-22T05:32:38.546Z,33.75
2022-08-22T05:33:38.483Z,33.75
2022-08-22T05:34:38.442Z,33.75
2022-08-22T05:35:38.361Z,33.75
2022-08-22T05:36:38.304Z,33.75
2022-08-22T05:37:38.243Z,33.75
2022-08-22T05:38:38.209Z,33.75
2022-08-22T05:39:38.137Z,33.75
2022-08-22T05:40:38.071Z,39.38
2022-08-22T05:41:38.024Z,39.38
2022-08-22T05:42:37.957Z,39.38
2022-08-22T05:43:37.891Z,45.00
2022-08-22T05:44:37.830Z,45.00
2022-08-22T05:45:37.767Z,50.63
2022-08-22T05:46:37.714Z,50.63
2022-08-22T05:47:37.646Z,56.25
2022-08-22T05:48:37.584Z,56.25
2022-08-22T05:49:37.519Z,61.88
2022-08-22T05:50:37.457Z,61.88
2022-08-22T05:51:37.402Z,61.88
2022-08-22T05:52:37.335Z,61.88
2022-08-22T05:53:37.273Z,67.50
2022-08-22T05:54:37.217Z,67.50
2022-08-22T05:55:37.151Z,73.13
2022-08-22T05:56:37.091Z,73.13
2022-08-22T05:57:37.039Z,78.75
2022-08-22T05:58:36.977Z,78.75
2022-08-22T05:59:36.907Z,84.38
2022-08-22T06:00:36.851Z,84.38
2022-08-22T06:01:36.809Z,95.63
2022-08-22T06:02:36.728Z,95.63
2022-08-22T06:03:36.666Z,101.25
2022-08-22T06:04:36.610Z,106.88
2022-08-22T06:05:36.545Z,112.50
2022-08-22T06:06:36.487Z,112.50
2022-08-22T06:07:36.428Z,123.75
2022-08-22T06:08:36.369Z,135.00
2022-08-22T06:09:36.321Z,140.63
2022-08-22T06:10:36.264Z,163.13
2022-08-22T06:11:36.223Z,185.63
2022-08-22T06:12:36.130Z,202.50
2022-08-22T06:13:36.070Z,213.75
2022-08-22T06:14:36.024Z,225.00
2022-08-22T06:15:36.181Z,208.13
2022-08-22T06:16:35.911Z,146.25
2022-08-22T06:17:35.837Z,168.75
2022-08-22T06:18:35.780Z,140.63
2022-08-22T06:19:35.725Z,151.88
2022-08-22T06:20:35.660Z,191.25
2022-08-22T06:21:39.347Z,213.75
2022-08-22T06:22:35.529Z,230.63
2022-08-22T06:23:35.473Z,236.25
2022-08-22T06:24:35.428Z,247.50
2022-08-22T06:25:35.355Z,247.50
2022-08-22T06:26:35.321Z,258.75
2022-08-22T06:27:35.252Z,264.38
2022-08-22T06:28:35.184Z,258.75
2022-08-22T06:29:35.146Z,253.13
2022-08-22T06:30:35.080Z,236.25
2022-08-22T06:31:35.012Z,236.25
2022-08-22T06:32:59.018Z,236.25
2022-08-22T06:33:34.929Z,236.25
2022-08-22T06:34:34.837Z,236.25
2022-08-22T06:35:34.768Z,236.25
2022-08-22T06:36:34.743Z,236.25
2022-08-22T06:37:34.648Z,236.25
2022-08-22T06:38:34.612Z,247.50
2022-08-22T06:39:34.525Z,230.63
2022-08-22T06:40:34.471Z,241.88
2022-08-22T06:41:34.425Z,258.75
2022-08-22T06:42:34.390Z,258.75
2022-08-22T06:43:34.296Z,247.50
2022-08-22T06:44:34.241Z,241.88
2022-08-22T06:45:34.227Z,236.25
2022-08-22T06:46:34.135Z,230.63
2022-08-22T06:47:34.066Z,225.00
2022-08-22T06:48:34.007Z,213.75
2022-08-22T06:49:33.946Z,208.13
2022-08-22T06:50:33.891Z,196.88
2022-08-22T06:51:33.834Z,191.25
2022-08-22T06:52:33.782Z,185.63
2022-08-22T06:53:33.720Z,185.63
2022-08-22T06:54:34.482Z,185.63
2022-08-22T06:55:33.598Z,191.25
2022-08-22T06:56:33.549Z,191.25
2022-08-22T06:57:33.488Z,191.25
2022-08-22T06:58:34.270Z,185.63
2022-08-22T06:59:33.377Z,191.25
2022-08-22T07:00:33.349Z,185.63
2022-08-22T07:01:33.350Z,191.25
2022-08-22T07:02:33.214Z,180.00
2022-08-22T07:03:33.179Z,180.00
2022-08-22T07:04:33.096Z,180.00
2022-08-22T07:05:33.033Z,174.38
2022-08-22T07:06:32.985Z,174.38
2022-08-22T07:07:32.937Z,168.75
2022-08-22T07:08:37.154Z,168.75
2022-08-22T07:09:32.808Z,163.13
2022-08-22T07:10:32.743Z,163.13
2022-08-22T07:11:32.680Z,163.13
2022-08-22T07:12:32.637Z,163.13
2022-08-22T07:13:32.629Z,168.75
2022-08-22T07:14:32.546Z,163.13
2022-08-22T07:15:32.452Z,168.75
2022-08-22T07:16:32.404Z,168.75
2022-08-22T07:17:32.363Z,174.38
2022-08-22T07:18:32.280Z,180.00
2022-08-22T07:19:32.225Z,174.38
2022-08-22T07:20:32.165Z,174.38
2022-08-22T07:21:32.539Z,174.38
2022-08-22T07:22:32.053Z,180.00
2022-08-22T07:23:32.000Z,174.38
2022-08-22T07:24:31.949Z,168.75
2022-08-22T07:25:31.882Z,168.75
2022-08-22T07:26:31.825Z,163.13
2022-08-22T07:27:31.766Z,157.50
2022-08-22T07:28:36.637Z,163.13
2022-08-22T07:29:32.586Z,163.13
2022-08-22T07:30:31.595Z,151.88
2022-08-22T07:31:31.863Z,151.88
2022-08-22T07:32:31.489Z,151.88
2022-08-22T07:33:31.438Z,146.25
2022-08-22T07:34:31.371Z,140.63
2022-08-22T07:35:31.345Z,140.63
2022-08-22T07:36:32.105Z,146.25
2022-08-22T07:37:31.260Z,146.25
2022-08-22T07:38:31.267Z,140.63
2022-08-22T07:39:31.240Z,146.25
2022-08-22T07:40:31.128Z,157.50
2022-08-22T07:41:31.528Z,151.88
2022-08-22T07:42:31.313Z,151.88
2022-08-22T07:43:30.892Z,151.88
2022-08-22T07:44:30.893Z,157.50
2022-08-22T07:45:30.852Z,157.50
2022-08-22T07:46:30.734Z,151.88
2022-08-22T07:47:30.644Z,151.88
2022-08-22T07:48:30.643Z,146.25
2022-08-22T07:49:30.614Z,146.25
2022-08-22T07:50:30.523Z,140.63
2022-08-22T07:51:30.425Z,140.63
2022-08-22T07:52:30.430Z,146.25
2022-08-22T07:53:30.335Z,146.25
2022-08-22T07:54:30.272Z,151.88
2022-08-22T07:55:30.244Z,157.50
2022-08-22T07:56:30.149Z,163.13
2022-08-22T07:57:30.106Z,168.75
2022-08-22T07:58:30.059Z,174.38
2022-08-22T07:59:29.975Z,163.13
2022-08-22T08:00:30.072Z,174.38
2022-08-22T08:01:29.941Z,174.38
2022-08-22T08:02:29.883Z,174.38
2022-08-22T08:03:29.716Z,180.00
2022-08-22T08:04:29.687Z,185.63
2022-08-22T08:05:29.688Z,185.63
2022-08-22T08:06:29.703Z,185.63
2022-08-22T08:07:29.792Z,191.25
2022-08-22T08:08:29.617Z,196.88
2022-08-22T08:09:29.655Z,202.50
2022-08-22T08:10:29.419Z,208.13
2022-08-22T08:11:29.559Z,219.38
2022-08-22T08:12:29.370Z,219.38
2022-08-22T08:13:29.269Z,219.38
2022-08-22T08:14:29.136Z,219.38
2022-08-22T08:15:29.325Z,225.00
2022-08-22T08:16:29.108Z,241.88
2022-08-22T08:17:32.240Z,247.50
2022-08-22T08:18:28.960Z,241.88
2022-08-22T08:19:28.894Z,236.25
2022-08-22T08:20:28.870Z,236.25
2022-08-22T08:21:28.980Z,241.88
2022-08-22T08:22:28.683Z,241.88
2022-08-22T08:23:28.690Z,241.88
2022-08-22T08:24:28.594Z,241.88
2022-08-22T08:25:28.498Z,236.25
2022-08-22T08:26:28.505Z,236.25
2022-08-22T08:27:28.508Z,236.25
2022-08-22T08:28:28.343Z,236.25
2022-08-22T08:29:28.322Z,225.00
2022-08-22T08:30:28.253Z,213.75
2022-08-22T08:31:28.227Z,219.38
2022-08-22T08:32:28.162Z,213.75
2022-08-22T08:33:28.136Z,213.75
2022-08-22T08:34:28.102Z,213.75
2022-08-22T08:35:27.945Z,219.38
2022-08-22T08:36:27.956Z,225.00
2022-08-22T08:37:27.972Z,236.25
2022-08-22T08:38:27.791Z,247.50
2022-08-22T08:39:32.504Z,258.75
2022-08-22T08:40:27.633Z,253.13
2022-08-22T08:41:28.016Z,247.50
2022-08-22T08:42:27.815Z,247.50
2022-08-22T08:43:27.520Z,247.50
2022-08-22T08:44:27.501Z,253.13
2022-08-22T08:45:28.986Z,247.50
2022-08-22T08:46:27.396Z,253.13
2022-08-22T08:47:27.403Z,247.50
2022-08-22T08:48:27.208Z,253.13
2022-08-22T08:49:27.144Z,253.13
2022-08-22T08:50:27.116Z,253.13
2022-08-22T08:51:27.114Z,253.13
2022-08-22T08:52:27.027Z,247.50
2022-08-22T08:53:26.938Z,253.13
2022-08-22T08:54:26.866Z,253.13
2022-08-22T08:55:26.844Z,241.88
2022-08-22T08:56:26.772Z,241.88
2022-08-22T08:57:30.148Z,230.63
2022-08-22T08:58:26.908Z,230.63
2022-08-22T08:59:26.659Z,225.00
2022-08-22T09:01:27.713Z,213.75
2022-08-22T09:02:26.474Z,219.38
2022-08-22T09:03:30.950Z,219.38
2022-08-22T09:04:26.314Z,208.13
2022-08-22T09:05:26.290Z,208.13
2022-08-22T09:06:26.223Z,208.13
2022-08-22T09:07:26.196Z,202.50
2022-08-22T09:08:27.653Z,185.63
2022-08-22T09:09:26.038Z,185.63
2022-08-22T09:10:29.346Z,180.00
2022-08-22T09:11:28.249Z,185.63
2022-08-22T09:12:26.077Z,180.00
2022-08-22T09:13:25.853Z,185.63
2022-08-22T09:14:27.303Z,185.63
2022-08-22T09:15:25.703Z,180.00
2022-08-22T09:16:25.735Z,185.63
2022-08-22T09:17:26.089Z,191.25
2022-08-22T09:18:25.682Z,180.00
2022-08-22T09:19:25.481Z,196.88
2022-08-22T09:20:25.399Z,196.88
2022-08-22T09:21:30.668Z,202.50
2022-08-22T09:22:25.296Z,196.88
2022-08-22T09:23:25.275Z,202.50
2022-08-22T09:24:25.275Z,208.13
2022-08-22T09:25:25.190Z,213.75
2022-08-22T09:26:25.323Z,202.50
2022-08-22T09:27:25.015Z,202.50
2022-08-22T09:29:24.952Z,225.00
2022-08-22T09:30:28.655Z,219.38
2022-08-22T09:31:44.887Z,213.75
2022-08-22T09:32:24.750Z,219.38
2022-08-22T09:33:24.732Z,208.13
2022-08-22T09:34:25.485Z,208.13
2022-08-22T09:35:24.636Z,208.13
2022-08-22T09:36:24.563Z,213.75
2022-08-22T09:37:24.468Z,196.88
2022-08-22T09:38:24.446Z,236.25
2022-08-22T09:39:24.443Z,219.38
2022-08-22T09:40:16.672Z,219.38
2022-08-22T09:41:24.277Z,208.13
2022-08-22T09:42:24.387Z,219.38
2022-08-22T09:43:24.295Z,236.25
2022-08-22T09:44:24.302Z,241.88
2022-08-22T09:45:24.173Z,230.63
2022-08-22T09:46:32.081Z,230.63
2022-08-22T09:47:24.682Z,219.38
2022-08-22T09:48:23.898Z,230.63
2022-08-22T09:49:23.793Z,225.00
2022-08-22T09:50:23.796Z,213.75
2022-08-22T09:51:32.418Z,208.13
2022-08-22T09:52:34.191Z,196.88
2022-08-22T09:53:23.610Z,208.13
2022-08-22T09:54:23.666Z,208.13
2022-08-22T09:55:35.299Z,208.13
2022-08-22T09:56:26.215Z,219.38
2022-08-22T09:57:23.488Z,213.75
2022-08-22T09:58:23.344Z,219.38
2022-08-22T09:59:23.581Z,213.75
2022-08-22T10:00:23.355Z,236.25
2022-08-22T10:01:23.258Z,230.63
2022-08-22T10:02:23.193Z,247.50
2022-08-22T10:03:23.061Z,247.50
2022-08-22T10:04:22.962Z,236.25
2022-08-22T10:05:35.294Z,219.38
2022-08-22T10:06:22.871Z,219.38
2022-08-22T10:07:22.812Z,213.75
2022-08-22T10:08:25.494Z,225.00
2022-08-22T10:09:26.794Z,241.88
2022-08-22T10:10:22.627Z,241.88
2022-08-22T10:11:22.593Z,253.13
2022-08-22T10:12:24.719Z,258.75
2022-08-22T10:13:22.572Z,270.00
2022-08-22T10:14:22.783Z,264.38
2022-08-22T10:15:22.418Z,225.00
2022-08-22T10:16:22.319Z,208.13
2022-08-22T10:17:22.326Z,225.00
2022-08-22T10:18:22.366Z,236.25
2022-08-22T10:19:22.232Z,241.88
2022-08-22T10:20:22.590Z,219.38
2022-08-22T10:21:22.181Z,213.75
2022-08-22T10:22:22.193Z,219.38
2022-08-22T10:23:21.955Z,196.88
2022-08-22T10:24:25.411Z,208.13
2022-08-22T10:25:21.867Z,225.00
2022-08-22T10:26:23.044Z,213.75
2022-08-22T10:27:21.713Z,213.75
2022-08-22T10:28:21.779Z,219.38
2022-08-22T10:29:21.681Z,208.13
2022-08-22T10:30:21.694Z,213.75
2022-08-22T10:31:21.529Z,208.13
2022-08-22T10:32:26.992Z,202.50
2022-08-22T10:33:21.406Z,208.13
2022-08-22T10:34:21.338Z,208.13
2022-08-22T10:35:21.322Z,202.50
2022-08-22T10:36:21.220Z,208.13
2022-08-22T10:37:23.554Z,225.00
2022-08-22T10:38:21.227Z,236.25
2022-08-22T10:39:22.641Z,253.13
2022-08-22T10:40:21.091Z,247.50
2022-08-22T10:41:22.619Z,253.13
2022-08-22T10:42:23.288Z,253.13
2022-08-22T10:43:20.857Z,241.88
2022-08-22T10:44:20.763Z,241.88
2022-08-22T10:45:23.661Z,253.13
2022-08-22T10:46:20.685Z,247.50
2022-08-22T10:47:20.665Z,247.50
2022-08-22T10:48:20.577Z,247.50
2022-08-22T10:49:20.522Z,219.38
2022-08-22T10:50:20.624Z,208.13
2022-08-22T10:51:20.396Z,213.75
2022-08-22T10:52:20.440Z,208.13
2022-08-22T10:53:29.380Z,196.88
2022-08-22T10:54:20.853Z,219.38
2022-08-22T10:55:20.215Z,191.25
2022-08-22T10:56:21.465Z,219.38
2022-08-22T10:57:20.921Z,191.25
2022-08-22T10:58:21.754Z,196.88
2022-08-22T10:59:20.042Z,180.00
2022-08-22T11:00:22.816Z,168.75
2022-08-22T11:01:41.596Z,163.13
2022-08-22T11:02:20.647Z,191.25
2022-08-22T11:03:23.306Z,180.00
2022-08-22T11:04:19.686Z,174.38
2022-08-22T11:05:19.653Z,247.50
2022-08-22T11:06:19.562Z,208.13
2022-08-22T11:07:21.876Z,230.63
2022-08-22T11:08:19.474Z,168.75
2022-08-22T11:09:19.479Z,185.63
2022-08-22T11:10:19.490Z,174.38
2022-08-22T11:11:19.400Z,185.63
2022-08-22T11:12:19.227Z,151.88
2022-08-22T11:13:19.205Z,208.13
2022-08-22T11:14:19.209Z,213.75
2022-08-22T11:15:26.188Z,219.38
2022-08-22T11:16:19.029Z,219.38
2022-08-22T11:17:30.187Z,202.50
2022-08-22T11:18:18.935Z,196.88
2022-08-22T11:19:18.853Z,180.00
2022-08-22T11:20:19.552Z,185.63
2022-08-22T11:21:18.755Z,185.63
2022-08-22T11:22:18.770Z,185.63
2022-08-22T11:23:18.664Z,163.13
2022-08-22T11:24:34.604Z,191.25
2022-08-22T11:25:29.260Z,196.88
2022-08-22T11:26:33.568Z,196.88
2022-08-22T11:27:20.887Z,202.50
2022-08-22T11:28:18.395Z,196.88
2022-08-22T11:29:18.311Z,185.63
2022-08-22T11:30:19.111Z,180.00
2022-08-22T11:31:18.226Z,174.38
2022-08-22T11:32:18.201Z,168.75
2022-08-22T11:33:18.131Z,163.13
2022-08-22T11:34:20.561Z,157.50
2022-08-22T11:35:18.024Z,151.88
2022-08-22T11:36:17.931Z,146.25
2022-08-22T11:37:17.921Z,146.25
2022-08-22T11:38:17.850Z,140.63
2022-08-22T11:39:18.701Z,140.63
2022-08-22T11:40:17.823Z,140.63
2022-08-22T11:41:17.669Z,135.00
2022-08-22T11:42:21.789Z,129.38
2022-08-22T11:43:18.179Z,129.38
2022-08-22T11:44:17.484Z,129.38
2022-08-22T11:45:17.474Z,123.75
2022-08-22T11:46:19.794Z,123.75
2022-08-22T11:47:17.380Z,123.75
2022-08-22T11:48:17.288Z,123.75
2022-08-22T11:49:18.868Z,123.75
2022-08-22T11:50:17.293Z,129.38
2022-08-22T11:51:17.112Z,129.38
2022-08-22T11:52:17.109Z,129.38
2022-08-22T11:53:17.009Z,129.38
2022-08-22T11:54:16.955Z,129.38
2022-08-22T11:55:16.926Z,118.13
2022-08-22T11:56:16.840Z,118.13
2022-08-22T11:57:16.832Z,123.75
2022-08-22T11:58:16.742Z,118.13
2022-08-22T11:59:16.683Z,112.50
2022-08-22T12:00:16.645Z,112.50
2022-08-22T12:01:17.127Z,112.50
2022-08-22T12:02:16.538Z,112.50
2022-08-22T12:03:16.540Z,112.50
2022-08-22T12:04:16.383Z,112.50
2022-08-22T12:05:17.970Z,112.50
2022-08-22T12:06:16.287Z,112.50
2022-08-22T12:07:16.269Z,112.50
2022-08-22T12:08:16.185Z,112.50
2022-08-22T12:09:17.976Z,112.50
2022-08-22T12:10:16.233Z,112.50
2022-08-22T12:11:16.003Z,112.50
2022-08-22T12:12:15.917Z,106.88
2022-08-22T12:13:15.907Z,106.88
2022-08-22T12:14:15.824Z,106.88
2022-08-22T12:15:15.810Z,106.88
2022-08-22T12:16:15.729Z,106.88
2022-08-22T12:17:21.231Z,106.88
2022-08-22T12:18:21.204Z,106.88
2022-08-22T12:19:15.551Z,112.50
2022-08-22T12:20:16.725Z,112.50
2022-08-22T12:21:15.445Z,112.50
2022-08-22T12:22:15.541Z,112.50
2022-08-22T12:23:15.357Z,112.50
2022-08-22T12:24:20.808Z,112.50
2022-08-22T12:25:15.247Z,112.50
2022-08-22T12:26:15.157Z,123.75
2022-08-22T12:27:18.358Z,118.13
2022-08-22T12:28:15.861Z,118.13
2022-08-22T12:29:15.190Z,118.13
2022-08-22T12:30:14.997Z,118.13
2022-08-22T12:31:14.883Z,118.13
2022-08-22T12:32:14.882Z,118.13
2022-08-22T12:33:17.320Z,118.13
2022-08-22T12:34:14.720Z,112.50
2022-08-22T12:35:14.676Z,112.50
2022-08-22T12:36:18.354Z,112.50
2022-08-22T12:37:14.540Z,118.13
2022-08-22T12:38:28.292Z,118.13
2022-08-22T12:39:14.425Z,118.13
2022-08-22T12:40:14.514Z,118.13
2022-08-22T12:41:14.335Z,118.13
2022-08-22T12:42:14.283Z,112.50
2022-08-22T12:43:15.710Z,112.50
2022-08-22T12:44:17.226Z,112.50
2022-08-22T12:45:14.278Z,118.13
2022-08-22T12:46:14.224Z,118.13
2022-08-22T12:47:13.973Z,118.13